createdAt,value
2023-04-25T00:01:10.422Z,73.62
2023-04-25T00:03:40.168Z,73.90
2023-04-25T00:06:08.696Z,73.83
2023-04-25T00:08:36.687Z,73.40
2023-04-25T00:11:04.625Z,73.61
2023-04-25T00:13:32.816Z,73.78
2023-04-25T00:16:01.256Z,74.33
2023-04-25T00:18:30.868Z,74.52
2023-04-25T00:20:59.176Z,74.70
2023-04-25T00:23:27.316Z,77.42
2023-04-25T00:25:54.939Z,76.27
2023-04-25T00:28:22.669Z,76.51
2023-04-25T00:30:51.341Z,78.07
2023-04-25T00:33:19.004Z,77.41
2023-04-25T00:35:46.769Z,76.73
2023-04-25T00:38:14.625Z,77.98
2023-04-25T00:40:44.877Z,78.78
2023-04-25T00:43:12.480Z,77.77
2023-04-25T00:45:40.932Z,76.98
2023-04-25T00:48:08.803Z,77.70
2023-04-25T00:50:38.118Z,78.28
2023-04-25T00:53:06.545Z,77.32
2023-04-25T00:55:35.754Z,79.46
2023-04-25T00:58:03.521Z,79.48
2023-04-25T01:00:31.549Z,78.41
2023-04-25T01:02:59.974Z,78.78
2023-04-25T01:05:27.802Z,80.51
2023-04-25T01:07:55.790Z,80.16
2023-04-25T01:10:23.532Z,79.80
2023-04-25T01:12:51.315Z,79.96
2023-04-25T01:15:18.990Z,79.09
2023-04-25T01:17:47.614Z,81.18
2023-04-25T01:20:15.418Z,79.45
2023-04-25T01:22:44.470Z,79.54
2023-04-25T01:25:12.262Z,79.30
2023-04-25T01:27:41.323Z,79.63
2023-04-25T01:30:10.133Z,80.06
2023-04-25T01:32:40.930Z,79.65
2023-04-25T01:35:11.222Z,80.07
2023-04-25T01:37:42.220Z,79.95
2023-04-25T01:40:12.354Z,79.77
2023-04-25T01:42:43.539Z,79.94
2023-04-25T01:45:11.895Z,80.31
2023-04-25T01:47:41.239Z,79.74
2023-04-25T01:50:09.869Z,80.18
2023-04-25T01:52:37.936Z,80.28
2023-04-25T01:55:07.173Z,80.23
2023-04-25T01:57:34.905Z,80.91
2023-04-25T02:00:07.726Z,81.62
2023-04-25T02:02:36.071Z,82.45
2023-04-25T02:05:04.335Z,81.95
2023-04-25T02:07:33.150Z,81.83
2023-04-25T02:10:01.208Z,80.90
2023-04-25T02:12:29.411Z,81.65
2023-04-25T02:14:57.146Z,81.50
2023-04-25T02:17:24.906Z,81.10
2023-04-25T02:19:52.592Z,80.92
2023-04-25T02:22:20.328Z,80.80
2023-04-25T02:24:47.965Z,81.91
2023-04-25T02:27:16.283Z,81.29
2023-04-25T02:29:43.939Z,80.87
2023-04-25T02:32:11.695Z,81.00
2023-04-25T02:34:39.355Z,81.23
2023-04-25T02:37:07.064Z,81.75
2023-04-25T02:39:34.704Z,81.77
2023-04-25T02:42:02.820Z,82.86
2023-04-25T02:44:30.570Z,81.58
2023-04-25T02:46:58.222Z,83.21
2023-04-25T02:49:26.190Z,82.16
2023-04-25T02:51:53.817Z,83.05
2023-04-25T02:54:21.505Z,82.89
2023-04-25T02:56:49.415Z,83.33
2023-04-25T02:59:17.075Z,82.61
2023-04-25T03:01:44.706Z,82.27
2023-04-25T03:04:12.381Z,82.76
2023-04-25T03:06:40.282Z,82.75
2023-04-25T03:09:08.295Z,82.73
2023-04-25T03:11:35.935Z,82.60
2023-04-25T03:14:04.116Z,82.23
2023-04-25T03:16:32.255Z,82.75
2023-04-25T03:19:00.106Z,84.05
2023-04-25T03:21:27.930Z,83.33
2023-04-25T03:23:55.613Z,82.61
2023-04-25T03:26:23.359Z,83.21
2023-04-25T03:28:51.207Z,83.00
2023-04-25T03:31:18.977Z,82.85
2023-04-25T03:33:46.593Z,82.82
2023-04-25T03:36:14.263Z,82.73
2023-04-25T03:38:42.809Z,82.85
2023-04-25T03:41:10.538Z,83.13
2023-04-25T03:43:38.224Z,83.23
2023-04-25T03:46:05.915Z,83.43
2023-04-25T03:48:33.692Z,83.89
2023-04-25T03:51:01.411Z,84.04
2023-04-25T03:53:29.157Z,84.10
2023-04-25T03:55:56.832Z,84.31
2023-04-25T03:58:25.609Z,84.61
2023-04-25T04:00:53.220Z,84.36
2023-04-25T04:03:21.797Z,85.05
2023-04-25T04:05:49.954Z,84.65
2023-04-25T04:08:17.780Z,84.45
2023-04-25T04:10:45.447Z,84.45
2023-04-25T04:13:13.206Z,85.14
2023-04-25T04:15:41.005Z,84.70
2023-04-25T04:18:08.691Z,84.58
2023-04-25T04:20:36.387Z,84.73
2023-04-25T04:23:04.262Z,85.07
2023-04-25T04:25:32.213Z,85.35
2023-04-25T04:28:00.150Z,85.55
2023-04-25T04:30:30.566Z,86.54
2023-04-25T04:32:59.078Z,86.53
2023-04-25T04:35:26.962Z,86.07
2023-04-25T04:37:55.671Z,86.24
2023-04-25T04:40:23.411Z,86.23
2023-04-25T04:42:51.116Z,86.44
2023-04-25T04:45:19.357Z,86.72
2023-04-25T04:47:47.459Z,87.00
2023-04-25T04:50:16.184Z,86.47
2023-04-25T04:52:43.879Z,87.03
2023-04-25T04:55:11.632Z,86.62
2023-04-25T04:57:39.811Z,86.16
2023-04-25T05:00:11.891Z,86.07
2023-04-25T05:02:40.286Z,86.44
2023-04-25T05:05:09.242Z,86.62
2023-04-25T05:07:36.918Z,86.54
2023-04-25T05:10:05.462Z,86.75
2023-04-25T05:12:34.063Z,86.32
2023-04-25T05:15:02.754Z,86.36
2023-04-25T05:17:30.647Z,86.47
2023-04-25T05:19:58.295Z,86.53
2023-04-25T05:22:25.923Z,86.38
2023-04-25T05:24:55.949Z,86.44
2023-04-25T05:27:24.136Z,86.69
2023-04-25T05:29:52.906Z,86.93
2023-04-25T05:32:20.630Z,87.01
2023-04-25T05:34:48.475Z,87.07
2023-04-25T05:37:16.313Z,87.23
2023-04-25T05:39:44.028Z,87.65
2023-04-25T05:42:11.691Z,87.26
2023-04-25T05:44:39.452Z,87.44
2023-04-25T05:47:07.347Z,87.17
2023-04-25T05:49:35.964Z,87.19
2023-04-25T05:52:04.118Z,87.26
2023-04-25T05:54:31.846Z,87.30
2023-04-25T05:56:59.508Z,87.21
2023-04-25T05:59:27.194Z,86.99
2023-04-25T06:01:56.115Z,86.76
2023-04-25T06:04:24.069Z,86.65
2023-04-25T06:06:51.929Z,86.57
2023-04-25T06:09:19.553Z,86.53
2023-04-25T06:11:47.155Z,86.59
2023-04-25T06:14:14.778Z,86.74
2023-04-25T06:16:42.436Z,87.05
2023-04-25T06:19:10.105Z,86.89
2023-04-25T06:21:37.766Z,86.97
2023-04-25T06:24:05.766Z,87.19
2023-04-25T06:26:33.507Z,87.33
2023-04-25T06:29:01.308Z,87.71
2023-04-25T06:31:30.040Z,87.41
2023-04-25T06:33:57.818Z,87.43
2023-04-25T06:36:27.111Z,87.64
2023-04-25T06:38:55.623Z,87.69
2023-04-25T06:41:23.370Z,87.40
2023-04-25T06:43:51.127Z,87.30
2023-04-25T06:46:19.427Z,87.36
2023-04-25T06:48:47.586Z,87.14
2023-04-25T06:51:15.342Z,86.99
2023-04-25T06:53:42.965Z,86.99
2023-04-25T06:56:11.143Z,86.82
2023-04-25T06:58:38.968Z,86.91
2023-04-25T07:01:06.805Z,86.66
2023-04-25T07:03:34.691Z,86.33
2023-04-25T07:06:02.554Z,86.39
2023-04-25T07:08:31.016Z,86.33
2023-04-25T07:10:59.069Z,86.39
2023-04-25T07:13:26.729Z,86.38
2023-04-25T07:15:56.658Z,86.10
2023-04-25T07:18:24.935Z,85.73
2023-04-25T07:20:52.599Z,85.76
2023-04-25T07:23:20.369Z,85.92
2023-04-25T07:25:48.657Z,85.93
2023-04-25T07:28:18.126Z,85.93
2023-04-25T07:30:47.326Z,85.93
2023-04-25T07:33:15.248Z,86.00
2023-04-25T07:35:43.037Z,86.11
2023-04-25T07:38:11.476Z,86.43
2023-04-25T07:40:39.317Z,86.23
2023-04-25T07:43:07.196Z,86.32
2023-04-25T07:45:34.956Z,86.24
2023-04-25T07:48:08.451Z,86.23
2023-04-25T07:50:41.335Z,86.33
2023-04-25T07:53:10.877Z,86.27
2023-04-25T07:55:41.348Z,86.09
2023-04-25T07:58:10.838Z,86.01
2023-04-25T08:00:39.747Z,85.97
2023-04-25T08:03:08.882Z,85.97
2023-04-25T08:05:37.227Z,85.94
2023-04-25T08:08:07.445Z,85.50
2023-04-25T08:10:35.629Z,85.27
2023-04-25T08:13:03.788Z,85.04
2023-04-25T08:15:31.478Z,84.96
2023-04-25T08:18:00.522Z,84.96
2023-04-25T08:20:28.761Z,84.88
2023-04-25T08:22:56.624Z,84.68
2023-04-25T08:25:24.867Z,84.60
2023-04-25T08:27:53.252Z,84.54
2023-04-25T08:30:22.179Z,84.37
2023-04-25T08:32:50.107Z,84.17
2023-04-25T08:35:18.563Z,84.23
2023-04-25T08:37:46.473Z,84.01
2023-04-25T08:40:16.132Z,83.83
2023-04-25T08:42:44.048Z,83.90
2023-04-25T08:45:12.189Z,83.91
2023-04-25T08:47:41.029Z,83.87
2023-04-25T08:50:08.891Z,83.79
2023-04-25T08:52:40.872Z,83.86
2023-04-25T08:55:10.701Z,83.89
2023-04-25T08:57:39.290Z,83.73
2023-04-25T09:00:09.093Z,83.90
2023-04-25T09:02:37.801Z,83.84
2023-04-25T09:05:07.689Z,83.47
2023-04-25T09:07:35.476Z,83.25
2023-04-25T09:10:04.520Z,83.12
2023-04-25T09:12:33.139Z,83.09
2023-04-25T09:15:05.511Z,83.02
2023-04-25T09:17:33.496Z,81.72
2023-04-25T09:20:11.937Z,81.85
2023-04-25T09:22:40.162Z,81.67
2023-04-25T09:25:13.302Z,81.76
2023-04-25T09:27:52.259Z,81.43
2023-04-25T09:30:29.342Z,81.57
2023-04-25T09:33:08.149Z,81.44
2023-04-25T09:35:41.303Z,80.54
2023-04-25T09:38:13.407Z,80.99
2023-04-25T09:40:46.411Z,80.37
2023-04-25T09:43:24.741Z,80.52
2023-04-25T09:45:58.898Z,80.32
2023-04-25T09:48:28.793Z,80.39
2023-04-25T09:51:11.316Z,80.48
2023-04-25T09:53:41.846Z,79.94
2023-04-25T09:56:11.792Z,79.54
2023-04-25T09:58:41.761Z,78.95
2023-04-25T10:01:12.601Z,78.45
2023-04-25T10:03:41.595Z,78.98
2023-04-25T10:06:13.840Z,79.24
2023-04-25T10:08:42.737Z,79.15
2023-04-25T10:11:11.011Z,78.81
2023-04-25T10:13:38.710Z,78.58
2023-04-25T10:16:06.556Z,78.94
2023-04-25T10:18:34.331Z,78.52
2023-04-25T10:21:05.202Z,78.67
2023-04-25T10:23:35.680Z,78.60
2023-04-25T10:26:03.537Z,78.93
2023-04-25T10:28:58.835Z,78.17
2023-04-25T10:31:27.017Z,78.43
2023-04-25T10:33:54.865Z,77.67
2023-04-25T10:36:24.208Z,77.26
2023-04-25T10:38:52.437Z,77.38
2023-04-25T10:41:21.669Z,77.28
2023-04-25T10:43:52.258Z,77.56
2023-04-25T10:46:27.039Z,77.43
2023-04-25T10:49:02.419Z,76.79
2023-04-25T10:51:50.883Z,76.46
2023-04-25T10:54:26.138Z,76.27
2023-04-25T10:56:54.702Z,75.58
2023-04-25T10:59:26.026Z,75.19
2023-04-25T11:01:56.126Z,74.94
2023-04-25T11:04:35.537Z,74.67
2023-04-25T11:07:06.818Z,74.95
2023-04-25T11:09:39.364Z,74.86
2023-04-25T11:12:10.113Z,74.25
2023-04-25T11:14:38.027Z,74.27
2023-04-25T11:17:07.250Z,74.19
2023-04-25T11:19:35.029Z,74.57
2023-04-25T11:22:04.214Z,74.81
2023-04-25T11:24:33.988Z,74.73
2023-04-25T11:27:05.442Z,74.23
2023-04-25T11:29:35.069Z,74.41
2023-04-25T11:32:03.555Z,74.28
2023-04-25T11:34:34.175Z,73.91
2023-04-25T11:37:03.679Z,74.19
2023-04-25T11:39:31.530Z,74.10
2023-04-25T11:42:01.381Z,74.13
2023-04-25T11:44:30.929Z,74.62
2023-04-25T11:46:58.908Z,74.69
2023-04-25T11:49:32.559Z,74.10
2023-04-25T11:52:00.458Z,74.26
2023-04-25T11:54:28.171Z,73.78
2023-04-25T11:56:56.231Z,74.26
2023-04-25T11:59:26.222Z,74.71
2023-04-25T12:01:54.605Z,74.36
2023-04-25T12:04:24.673Z,74.35
2023-04-25T12:06:55.470Z,74.08
2023-04-25T12:09:32.011Z,74.46
2023-04-25T12:12:04.369Z,74.82
2023-04-25T12:14:36.865Z,74.35
2023-04-25T12:17:08.712Z,73.74
2023-04-25T12:19:41.312Z,73.86
2023-04-25T12:22:23.511Z,73.67
2023-04-25T12:24:51.770Z,73.89
2023-04-25T12:27:20.254Z,73.72
2023-04-25T12:29:56.951Z,74.58
2023-04-25T12:32:25.424Z,73.47
2023-04-25T12:34:53.307Z,73.65
2023-04-25T12:37:21.360Z,73.82
2023-04-25T12:39:49.516Z,74.16
2023-04-25T12:42:17.275Z,74.09
2023-04-25T12:44:45.040Z,74.17
2023-04-25T12:47:13.118Z,73.68
2023-04-25T12:49:41.094Z,73.65
2023-04-25T12:52:08.839Z,73.58
2023-04-25T12:54:36.602Z,73.67
2023-04-25T12:57:04.518Z,73.44
2023-04-25T12:59:32.554Z,74.20
2023-04-25T13:02:00.703Z,74.40
2023-04-25T13:04:28.890Z,74.41
2023-04-25T13:06:56.952Z,74.15
2023-04-25T13:09:24.736Z,74.13
2023-04-25T13:11:54.786Z,74.44
2023-04-25T13:14:24.138Z,74.56
2023-04-25T13:16:51.960Z,74.65
2023-04-25T13:19:19.732Z,74.76
2023-04-25T13:21:47.477Z,75.40
2023-04-25T13:24:15.399Z,75.29
2023-04-25T13:26:43.164Z,75.47
2023-04-25T13:29:10.921Z,75.91
2023-04-25T13:31:38.642Z,76.01
2023-04-25T13:34:06.638Z,76.07
2023-04-25T13:36:35.022Z,76.07
2023-04-25T13:39:04.634Z,76.30
2023-04-25T13:41:32.803Z,75.97
2023-04-25T13:44:01.765Z,75.71
2023-04-25T13:46:45.539Z,76.15
2023-04-25T13:49:15.371Z,76.21
2023-04-25T13:51:43.624Z,76.22
2023-04-25T13:54:11.815Z,76.59
2023-04-25T13:56:39.785Z,76.53
2023-04-25T13:59:07.559Z,76.39
2023-04-25T14:01:36.882Z,76.38
2023-04-25T14:04:05.725Z,76.39
2023-04-25T14:06:34.024Z,76.65
2023-04-25T14:09:02.233Z,76.62
2023-04-25T14:11:30.061Z,76.82
2023-04-25T14:13:57.787Z,77.50
2023-04-25T14:16:25.737Z,77.42
2023-04-25T14:18:53.546Z,77.52
2023-04-25T14:21:22.208Z,77.97
2023-04-25T14:23:50.013Z,78.06
2023-04-25T14:26:17.950Z,78.09
2023-04-25T14:28:45.782Z,78.14
2023-04-25T14:31:13.837Z,78.19
2023-04-25T14:33:43.898Z,78.00
2023-04-25T14:36:12.165Z,77.70
2023-04-25T14:38:40.094Z,77.51
2023-04-25T14:41:07.911Z,77.41
2023-04-25T14:43:35.863Z,77.50
2023-04-25T14:46:04.237Z,77.51
2023-04-25T14:48:32.333Z,77.64
2023-04-25T14:51:03.558Z,77.91
2023-04-25T14:53:32.869Z,77.90
2023-04-25T14:56:00.616Z,77.87
2023-04-25T14:58:28.315Z,77.96
2023-04-25T15:00:56.644Z,77.87
2023-04-25T15:03:24.598Z,77.83
2023-04-25T15:05:53.006Z,78.03
2023-04-25T15:08:20.771Z,78.19
2023-04-25T15:10:48.858Z,78.03
2023-04-25T15:13:16.988Z,78.21
2023-04-25T15:15:44.677Z,78.46
2023-04-25T15:18:13.286Z,78.48
2023-04-25T15:20:41.260Z,78.67
2023-04-25T15:23:09.033Z,79.07
2023-04-25T15:25:36.795Z,79.39
2023-04-25T15:28:04.710Z,79.45
2023-04-25T15:30:32.492Z,79.50
2023-04-25T15:33:00.643Z,79.49
2023-04-25T15:35:28.620Z,79.56
2023-04-25T15:37:56.496Z,79.50
2023-04-25T15:40:24.570Z,79.41
2023-04-25T15:42:53.809Z,79.54
2023-04-25T15:45:26.136Z,79.75
2023-04-25T15:47:57.043Z,79.83
2023-04-25T15:50:25.847Z,79.86
2023-04-25T15:52:53.777Z,79.97
2023-04-25T15:55:22.113Z,79.89
2023-04-25T15:57:51.577Z,79.86
2023-04-25T16:00:21.298Z,80.08
2023-04-25T16:02:49.128Z,80.29
2023-04-25T16:05:19.419Z,80.34
2023-04-25T16:07:48.896Z,80.53
2023-04-25T16:10:22.797Z,80.67
2023-04-25T16:12:51.532Z,80.77
2023-04-25T16:15:19.765Z,80.76
2023-04-25T16:17:47.693Z,80.76
2023-04-25T16:20:16.343Z,80.97
2023-04-25T16:22:44.902Z,81.04
2023-04-25T16:25:13.910Z,81.17
2023-04-25T16:27:41.834Z,81.41
2023-04-25T16:30:11.175Z,81.31
2023-04-25T16:32:41.369Z,81.79
2023-04-25T16:35:10.455Z,81.56
2023-04-25T16:37:38.179Z,81.43
2023-04-25T16:40:09.880Z,81.31
2023-04-25T16:42:37.674Z,81.31
2023-04-25T16:45:06.445Z,81.72
2023-04-25T16:47:34.236Z,81.44
2023-04-25T16:50:01.938Z,81.60
2023-04-25T16:52:29.596Z,81.55
2023-04-25T16:54:57.729Z,81.61
2023-04-25T16:57:25.967Z,81.65
2023-04-25T16:59:53.597Z,81.55
2023-04-25T17:02:21.389Z,81.67
2023-04-25T17:04:49.471Z,81.85
2023-04-25T17:07:18.243Z,81.94
2023-04-25T17:09:45.915Z,81.79
2023-04-25T17:12:14.184Z,81.74
2023-04-25T17:14:43.112Z,81.73
2023-04-25T17:17:10.963Z,81.51
2023-04-25T17:19:38.821Z,81.68
2023-04-25T17:22:07.309Z,81.36
2023-04-25T17:24:35.019Z,81.05
2023-04-25T17:27:02.742Z,81.47
2023-04-25T17:29:30.451Z,81.44
2023-04-25T17:31:58.144Z,81.58
2023-04-25T17:34:26.331Z,82.18
2023-04-25T17:36:54.672Z,81.92
2023-04-25T17:39:22.442Z,82.03
2023-04-25T17:41:50.468Z,82.39
2023-04-25T17:44:18.276Z,82.21
2023-04-25T17:46:46.111Z,81.91
2023-04-25T17:49:13.969Z,82.19
2023-04-25T17:51:41.878Z,82.39
2023-04-25T17:54:09.618Z,82.42
2023-04-25T17:56:38.129Z,82.45
2023-04-25T17:59:06.213Z,82.54
2023-04-25T18:01:34.030Z,82.31
2023-04-25T18:04:04.212Z,82.71
2023-04-25T18:06:35.763Z,82.87
2023-04-25T18:09:16.086Z,83.25
2023-04-25T18:11:47.625Z,83.23
2023-04-25T18:14:17.750Z,83.34
2023-04-25T18:16:47.357Z,83.57
2023-04-25T18:19:24.775Z,83.60
2023-04-25T18:21:56.169Z,83.90
2023-04-25T18:24:27.224Z,83.86
2023-04-25T18:26:56.062Z,83.76
2023-04-25T18:29:32.833Z,83.87
2023-04-25T18:32:02.433Z,84.10
2023-04-25T18:34:30.988Z,84.22
2023-04-25T18:36:58.719Z,84.19
2023-04-25T18:39:27.715Z,84.32
2023-04-25T18:42:01.384Z,84.37
2023-04-25T18:44:35.756Z,84.55
2023-04-25T18:47:03.588Z,84.61
2023-04-25T18:49:32.406Z,84.58
2023-04-25T18:52:00.942Z,84.73
2023-04-25T18:54:28.767Z,84.91
2023-04-25T18:56:57.606Z,84.99
2023-04-25T18:59:26.322Z,85.04
2023-04-25T19:01:54.021Z,85.20
2023-04-25T19:04:22.177Z,85.26
2023-04-25T19:06:51.351Z,85.29
2023-04-25T19:09:19.530Z,85.30
2023-04-25T19:11:47.415Z,85.37
2023-04-25T19:14:15.240Z,85.51
2023-04-25T19:16:43.537Z,85.60
2023-04-25T19:19:11.570Z,85.63
2023-04-25T19:21:39.682Z,85.69
2023-04-25T19:24:08.462Z,85.69
2023-04-25T19:26:36.239Z,85.76
2023-04-25T19:29:13.517Z,85.76
2023-04-25T19:31:43.150Z,85.75
2023-04-25T19:34:12.262Z,85.82
2023-04-25T19:36:41.517Z,85.84
2023-04-25T19:39:09.700Z,85.87
2023-04-25T19:41:38.580Z,85.89
2023-04-25T19:44:08.544Z,85.92
2023-04-25T19:46:37.362Z,85.94
2023-04-25T19:49:09.022Z,85.96
2023-04-25T19:51:37.491Z,85.96
2023-04-25T19:54:05.559Z,85.93
2023-04-25T19:56:33.276Z,85.99
2023-04-25T19:59:01.120Z,85.92
2023-04-25T20:01:29.472Z,85.85
2023-04-25T20:03:57.372Z,85.78
2023-04-25T20:06:25.217Z,85.48
2023-04-25T20:08:53.637Z,85.49
2023-04-25T20:11:21.890Z,85.52
2023-04-25T20:13:50.051Z,85.63
2023-04-25T20:16:20.364Z,85.94
2023-04-25T20:18:49.013Z,86.13
2023-04-25T20:21:17.487Z,86.19
2023-04-25T20:23:46.223Z,86.19
2023-04-25T20:26:14.179Z,86.35
2023-04-25T20:28:42.157Z,86.41
2023-04-25T20:31:11.248Z,86.38
2023-04-25T20:33:39.082Z,86.32
2023-04-25T20:36:06.905Z,86.27
2023-04-25T20:38:34.636Z,86.21
2023-04-25T20:41:02.750Z,86.31
2023-04-25T20:43:31.492Z,86.47
2023-04-25T20:46:00.374Z,86.06
2023-04-25T20:48:28.171Z,85.89
2023-04-25T20:50:57.040Z,86.16
2023-04-25T20:53:24.803Z,86.29
2023-04-25T20:55:52.564Z,86.77
2023-04-25T20:58:20.838Z,86.60
2023-04-25T21:00:49.203Z,86.68
2023-04-25T21:03:17.385Z,86.41
2023-04-25T21:05:46.787Z,86.54
2023-04-25T21:08:14.469Z,86.79
2023-04-25T21:10:42.235Z,86.70
2023-04-25T21:13:10.097Z,86.83
2023-04-25T21:15:38.266Z,86.53
2023-04-25T21:18:07.137Z,86.61
2023-04-25T21:20:35.146Z,86.17
2023-04-25T21:23:03.402Z,86.41
2023-04-25T21:25:31.732Z,85.86
2023-04-25T21:28:00.262Z,86.02
2023-04-25T21:30:28.620Z,85.95
2023-04-25T21:32:56.921Z,86.22
2023-04-25T21:35:25.285Z,86.12
2023-04-25T21:37:53.141Z,86.47
2023-04-25T21:40:21.736Z,86.72
2023-04-25T21:42:51.674Z,87.17
2023-04-25T21:45:20.771Z,86.95
2023-04-25T21:47:48.652Z,86.72
2023-04-25T21:50:17.310Z,86.83
2023-04-25T21:52:45.170Z,86.64
2023-04-25T21:55:12.929Z,86.35
2023-04-25T21:57:41.400Z,86.48
2023-04-25T22:00:21.083Z,86.55
2023-04-25T22:02:48.862Z,86.59
2023-04-25T22:05:20.350Z,86.49
2023-04-25T22:07:53.239Z,86.49
2023-04-25T22:10:21.750Z,86.26
2023-04-25T22:12:52.365Z,86.35
2023-04-25T22:15:23.720Z,86.18
2023-04-25T22:17:54.277Z,86.29
2023-04-25T22:20:26.337Z,86.23
2023-04-25T22:22:57.743Z,86.24
2023-04-25T22:25:25.599Z,86.32
2023-04-25T22:27:53.267Z,86.30
2023-04-25T22:30:21.756Z,86.34
2023-04-25T22:32:49.523Z,86.28
2023-04-25T22:35:17.561Z,86.44
2023-04-25T22:37:45.321Z,86.58
2023-04-25T22:40:13.347Z,86.67
2023-04-25T22:42:43.615Z,86.61
2023-04-25T22:45:11.716Z,86.37
2023-04-25T22:47:40.137Z,86.19
2023-04-25T22:50:13.076Z,86.15
2023-04-25T22:52:42.797Z,86.27
2023-04-25T22:55:13.090Z,86.27
2023-04-25T22:57:41.687Z,86.10
2023-04-25T23:00:19.808Z,85.90
2023-04-25T23:02:49.859Z,85.75
2023-04-25T23:05:18.575Z,85.51
2023-04-25T23:07:46.336Z,85.48
2023-04-25T23:10:14.337Z,85.30
2023-04-25T23:12:42.436Z,85.19
2023-04-25T23:15:12.415Z,85.05
2023-04-25T23:17:41.262Z,85.06
2023-04-25T23:20:11.202Z,85.27
2023-04-25T23:22:39.194Z,85.44
2023-04-25T23:25:08.093Z,85.36
2023-04-25T23:27:35.852Z,85.39
2023-04-25T23:30:04.090Z,85.12
2023-04-25T23:32:32.316Z,85.04
2023-04-25T23:35:00.186Z,84.93
2023-04-25T23:37:28.015Z,84.60
2023-04-25T23:39:55.763Z,84.62
2023-04-25T23:42:23.528Z,84.55
2023-04-25T23:44:51.295Z,84.40
2023-04-25T23:47:19.174Z,84.42
2023-04-25T23:49:46.834Z,84.40
2023-04-25T23:52:14.525Z,84.55
2023-04-25T23:54:42.648Z,84.44
2023-04-25T23:57:12.270Z,84.39
2023-04-25T23:59:40.029Z,84.44
